Flight Track Log - Related Links

Times and Time Zones

All times are in EDT time to prevent confusion due to time zone crossing. See the SWA315 flight status page for this flight to view local times or setup timezone preferences in your user account.

Time Position Orientation Groundspeed Altitude Reporting Facility
EDT Latitude Longitude Course Direction KTS MPH feet Rate Location/Type
Fri 12:22:08 AM 37.7333 -122.2500 288° West 156 180 1,400  Level Northern Cal TRACON
Fri 12:23:11 AM 37.7472 -122.3050 288° West 224 258 3,000 2,350 Climbing Oakland Center
Fri 12:24:08 AM 37.7667 -122.3833 287° West 228 262 6,100 3,475 Climbing Northern Cal TRACON
Fri 12:26:14 AM 37.6814 -122.4869 224° Southwest 266 306 13,600 3,089 Climbing Oakland Center
Fri 12:28:05 AM 37.5383 -122.4339 164° South 341 392 18,300 2,477 Climbing Los Angeles Center
Fri 12:29:06 AM 37.4714 -122.3239 127° Southeast 374 430 20,700 2,459 Climbing Los Angeles Center
Fri 12:30:07 AM 37.3978 -122.2172 131° Southeast 394 453 23,300 2,390 Climbing Los Angeles Center
Fri 12:31:09 AM 37.3211 -122.0983 129° Southeast 418 481 25,600 2,091 Climbing Los Angeles Center
Fri 12:32:19 AM 37.2244 -121.9569 131° Southeast 455 524 27,900 2,153 Climbing Oakland Center
Fri 12:33:20 AM 37.1225 -121.8031 130° Southeast 478 550 30,300 2,066 Climbing Oakland Center
Fri 12:34:21 AM 37.0336 -121.6753 131° Southeast 486 559 32,100 1,426 Climbing Oakland Center
Fri 12:35:22 AM 36.9436 -121.5425 130° Southeast 496 571 33,200 1,377 Climbing Oakland Center
Fri 12:36:23 AM 36.8511 -121.4028 130° Southeast 518 596 34,900 2,164 Climbing Oakland Center
Fri 12:37:24 AM 36.7547 -121.2650 131° Southeast 511 588 37,600 2,033 Climbing Oakland Center
Fri 12:38:24 AM 36.6683 -121.1358 130° Southeast 491 565 39,000 893 Climbing Oakland Center
Fri 12:39:25 AM 36.5778 -121.0078 131° Southeast 492 566 39,400 541 Climbing Oakland Center
Fri 12:40:26 AM 36.4847 -120.8714 130° Southeast 510 587 40,100 787 Climbing Oakland Center
Fri 12:41:27 AM 36.3911 -120.7361 131° Southeast 517 595 41,000 443 Climbing Oakland Center
Fri 12:42:28 AM 36.2989 -120.6042 131° Southeast 509 586 41,000  Level Oakland Center
Fri 12:43:29 AM 36.2069 -120.4764 132° Southeast 500 575 41,000  Level Oakland Center
Fri 12:44:30 AM 36.1158 -120.3461 131° Southeast 499 574 41,000  Level Oakland Center
Fri 12:45:31 AM 36.0244 -120.2178 131° Southeast 496 571 41,000  Level Oakland Center
Fri 12:46:32 AM 35.9333 -120.0892 131° Southeast 495 570 41,000  Level Oakland Center
Fri 12:47:32 AM 35.8417 -119.9606 131° Southeast 495 570 41,000  Level Oakland Center
Fri 12:48:33 AM 35.7514 -119.8344 131° Southeast 489 563 41,000  Level Oakland Center
Fri 12:49:34 AM 35.6614 -119.7081 131° Southeast 489 563 41,000  Level Oakland Center
Fri 12:50:35 AM 35.5708 -119.5831 132° Southeast 489 563 41,000  Level Oakland Center
Fri 12:51:36 AM 35.4803 -119.4564 131° Southeast 491 565 41,000  Level Oakland Center
Fri 12:52:37 AM 35.3886 -119.3308 132° Southeast 493 567 41,000  Level Oakland Center
Fri 12:53:38 AM 35.3075 -119.1956 126° Southeast 493 567 41,000  Level Oakland Center
Fri 12:54:39 AM 35.2258 -119.0583 126° Southeast 499 574 41,000  Level Oakland Center
Fri 12:55:39 AM 35.1289 -118.8950 126° Southeast 495 570 41,000  Level Oakland Center
Fri 12:56:40 AM 35.0506 -118.7592 125° Southeast 491 565 41,000  Level Oakland Center
Fri 12:57:41 AM 34.9697 -118.6219 126° Southeast 496 571 41,000  Level Oakland Center
Fri 12:58:48 AM 34.8783 -118.4733 127° Southeast 500 575 41,000  Level Los Angeles Center
Fri 01:00:00 AM 34.7933 -118.3352 127° Southeast  Level FlightAware Approximate
Fri 01:00:51 AM 34.7147 -118.2019 127° Southeast 502 578 41,000  Level Los Angeles Center
Fri 01:01:53 AM 34.6358 -118.0664 125° Southeast 497 572 41,000  Level Los Angeles Center
Fri 01:02:54 AM 34.5850 -117.9133 112° Southeast 493 567 41,000  Level Los Angeles Center
Fri 01:03:55 AM 34.5303 -117.7283 110° East 491 565 41,000  Level Los Angeles Center
Fri 01:04:57 AM 34.4847 -117.5756 110° East 488 562 41,000  Level Los Angeles Center
Fri 01:05:58 AM 34.4392 -117.4236 110° East 484 557 41,000  Level Los Angeles Center
Fri 01:07:00 AM 34.4031 -117.3017 110° East 484 557 41,000  Level Los Angeles Center
Fri 01:08:01 AM 34.3519 -117.1158 108° East 487 560 41,000  Level Los Angeles Center
Fri 01:09:02 AM 34.3089 -116.9597 108° East 489 563 41,000  Level Los Angeles Center
Fri 01:10:04 AM 34.2633 -116.8044 110° East 492 566 41,000  Level Los Angeles Center
Fri 01:11:05 AM 34.2194 -116.6478 109° East 494 568 41,000  Level Los Angeles Center
Fri 01:12:06 AM 34.1658 -116.4586 109° East 497 572 41,000  Level Los Angeles Center
Fri 01:13:08 AM 34.1225 -116.3011 108° East 493 567 41,000  Level Los Angeles Center
Fri 01:14:33 AM 34.0600 -116.0825 109° East 491 565 41,000  Level Los Angeles Center
Fri 01:15:35 AM 34.0139 -115.9242 109° East 497 572 41,000  Level Los Angeles Center
Fri 01:16:36 AM 33.9667 -115.7636 109° East 505 581 41,000  Level Los Angeles Center
Fri 01:17:37 AM 33.9214 -115.6089 109° East 492 566 41,000  Level Los Angeles Center
Fri 01:18:39 AM 33.8756 -115.4539 110° East 490 564 41,000  Level Los Angeles Center
Fri 01:19:40 AM 33.8297 -115.2986 110° East 492 566 41,000  Level Los Angeles Center
Fri 01:20:41 AM 33.7828 -115.1403 110° East 503 579 41,000 -488 Level Los Angeles Center
Fri 01:21:43 AM 33.7261 -114.9511 110° East 503 579 40,000 -1,756 Descending Los Angeles Center
Fri 01:22:44 AM 33.6778 -114.7953 110° East 498 573 37,400 -2,705 Descending Los Angeles Center
Fri 01:23:45 AM 33.6317 -114.6386 109° East 498 573 34,500 -2,974 Descending Los Angeles Center
Fri 01:24:39 AM 33.5914 -114.4969 109° East 500 575 31,700 -2,842 Descending Albuquerque Center
Fri 01:25:39 AM 33.5450 -114.3414 110° East 498 573 29,100 -2,430 Descending Albuquerque Center
Fri 01:26:40 AM 33.4994 -114.1931 110° East 482 555 26,800 -2,016 Descending Albuquerque Center
Fri 01:27:41 AM 33.4572 -114.0514 110° East 460 529 25,000 -893 Descending Albuquerque Center
Fri 01:28:41 AM 33.4389 -113.9058 99° East 447 514 25,000  Level Albuquerque Center
Fri 01:29:42 AM 33.4175 -113.7603 100° East 443 510 25,000 -393 Level Albuquerque Center
Fri 01:30:43 AM 33.3972 -113.6136 99° East 445 512 24,200 -1,475 Descending Albuquerque Center
Fri 01:31:44 AM 33.3769 -113.4717 100° East 438 504 22,000 -2,231 Descending Albuquerque Center
Fri 01:32:44 AM 33.3575 -113.3342 100° East 425 489 19,700 -2,281 Descending Albuquerque Center
Fri 01:33:45 AM 33.3381 -113.2044 100° East 405 466 17,400 -2,231 Descending Albuquerque Center
Fri 01:34:45 AM 33.3197 -113.0811 100° East 385 443 15,200 -2,083 Descending Albuquerque Center
Fri 01:35:46 AM 33.3025 -112.9633 100° East 367 422 13,200 -1,721 Descending Albuquerque Center
Fri 01:36:47 AM 33.2847 -112.8519 101° East 350 403 11,700 -1,339 Descending Albuquerque Center
Fri 01:37:47 AM 33.3039 -112.7567 76° East 310 357 10,500 -893 Descending Albuquerque Center
Fri 01:38:48 AM 33.3353 -112.6703 66° East 288 331 9,900 -836 Descending Albuquerque Center
Fri 01:39:49 AM 33.3683 -112.5867 65° Northeast 266 306 8,800 -942 Descending Albuquerque Center
Fri 01:40:49 AM 33.3989 -112.5075 65° Northeast 261 300 8,000 -843 Descending Albuquerque Center
Fri 01:41:50 AM 33.4250 -112.4342 67° East 244 281 7,100 -992 Descending Albuquerque Center
Fri 01:42:50 AM 33.4283 -112.3550 87° East 243 280 6,000 -1,091 Descending Albuquerque Center
Fri 01:43:51 AM 33.4311 -112.2758 88° East 241 277 4,900 -1,041 Descending Albuquerque Center
Fri 01:44:51 AM 33.4308 -112.1964 90° East 239 275 3,900 -942 Descending Albuquerque Center
Fri 01:45:52 AM 33.4311 -112.1294 90° East 202 232 3,000 -934 Descending Albuquerque Center
Fri 01:46:53 AM 33.4311 -112.0761 90° East 168 193 2,000 -893 Descending Albuquerque Center
Fri 01:47:53 AM 33.4311 -112.0344 90° East 131 151 1,200 -800 Descending Albuquerque Center
Fri 01:49:00 AM 33.4343 -112.0116 82° East  Level Estimated
Fri 01:56:00 AM 33.4343 -112.0116 82° East  Level Estimated

Login

Don't have an account? Register now (free) for customized features, flight alerts, and more!